Terminal Aerodrome Forecast
Issued by NWS Wichita, KS

Home | Current Version | Previous Version | Graphics & Text | Print | Product List | Glossary On
Versions: 1 2 3 4 5 6 7 8 9 10 11 12 13 14 15
000
FTUS43 KICT 182300
TAFICT
TAF
KICT 182330Z 1900/1924 09003KT P6SM OVC200
     FM190800 17007KT P6SM OVC200
     FM191400 18013KT P6SM OVC150=

USA.gov is the U.S. government's official web portal to all federal, state and local government web resources and services.